sensor_id;sensor_type;location;lat;lon;timestamp;pressure;altitude;pressure_sealevel;temperature;humidity
35577;BME280;21680;52.400;16.920;2023-07-29T00:01:04;100035.00;;;18.05;100.00
35577;BME280;21680;52.400;16.920;2023-07-29T00:03:29;100036.24;;;18.05;100.00
35577;BME280;21680;52.400;16.920;2023-07-29T00:05:58;100037.11;;;18.06;100.00
35577;BME280;21680;52.400;16.920;2023-07-29T00:08:23;100040.56;;;18.06;100.00
35577;BME280;21680;52.400;16.920;2023-07-29T00:10:48;100038.73;;;18.04;100.00
35577;BME280;21680;52.400;16.920;2023-07-29T00:13:13;100034.88;;;18.03;100.00
35577;BME280;21680;52.400;16.920;2023-07-29T00:15:39;100039.72;;;18.01;100.00
35577;BME280;21680;52.400;16.920;2023-07-29T00:18:04;100039.41;;;17.96;100.00
35577;BME280;21680;52.400;16.920;2023-07-29T00:20:29;100039.77;;;17.92;100.00
35577;BME280;21680;52.400;16.920;2023-07-29T00:22:54;100044.73;;;17.89;100.00
35577;BME280;21680;52.400;16.920;2023-07-29T00:25:21;100047.42;;;17.87;100.00
35577;BME280;21680;52.400;16.920;2023-07-29T00:27:46;100044.92;;;17.84;100.00
35577;BME280;21680;52.400;16.920;2023-07-29T00:30:12;100043.86;;;17.79;100.00
35577;BME280;21680;52.400;16.920;2023-07-29T00:32:37;100039.09;;;17.76;100.00
35577;BME280;21680;52.400;16.920;2023-07-29T00:35:03;100037.89;;;17.75;100.00
35577;BME280;21680;52.400;16.920;2023-07-29T00:37:29;100033.19;;;17.75;100.00
35577;BME280;21680;52.400;16.920;2023-07-29T00:39:55;100029.71;;;17.71;100.00
35577;BME280;21680;52.400;16.920;2023-07-29T00:42:20;100033.98;;;17.68;100.00
35577;BME280;21680;52.400;16.920;2023-07-29T00:44:46;100033.13;;;17.69;100.00
35577;BME280;21680;52.400;16.920;2023-07-29T00:47:12;100034.16;;;17.68;100.00
35577;BME280;21680;52.400;16.920;2023-07-29T00:49:40;100028.54;;;17.66;100.00
35577;BME280;21680;52.400;16.920;2023-07-29T00:52:05;100030.79;;;17.62;100.00
35577;BME280;21680;52.400;16.920;2023-07-29T00:54:31;100032.86;;;17.59;100.00
35577;BME280;21680;52.400;16.920;2023-07-29T00:56:56;100029.30;;;17.56;100.00
35577;BME280;21680;52.400;16.920;2023-07-29T00:59:22;100030.46;;;17.53;100.00
35577;BME280;21680;52.400;16.920;2023-07-29T01:01:48;100028.99;;;17.49;100.00
35577;BME280;21680;52.400;16.920;2023-07-29T01:04:13;100030.84;;;17.46;100.00
35577;BME280;21680;52.400;16.920;2023-07-29T01:09:30;100030.32;;;17.44;100.00
35577;BME280;21680;52.400;16.920;2023-07-29T01:12:06;100032.77;;;17.41;100.00
35577;BME280;21680;52.400;16.920;2023-07-29T01:17:22;100029.92;;;17.29;100.00
35577;BME280;21680;52.400;16.920;2023-07-29T01:19:50;100026.90;;;17.26;100.00
35577;BME280;21680;52.400;16.920;2023-07-29T01:22:21;100030.34;;;17.24;100.00
35577;BME280;21680;52.400;16.920;2023-07-29T01:24:46;100029.09;;;17.21;100.00
35577;BME280;21680;52.400;16.920;2023-07-29T01:27:12;100034.67;;;17.21;100.00
35577;BME280;21680;52.400;16.920;2023-07-29T01:29:37;100034.99;;;17.22;100.00
35577;BME280;21680;52.400;16.920;2023-07-29T01:32:10;100034.17;;;17.21;100.00
35577;BME280;21680;52.400;16.920;2023-07-29T01:34:45;100035.09;;;17.18;100.00
35577;BME280;21680;52.400;16.920;2023-07-29T01:37:16;100032.41;;;17.13;100.00
35577;BME280;21680;52.400;16.920;2023-07-29T01:39:45;100030.71;;;17.10;100.00
35577;BME280;21680;52.400;16.920;2023-07-29T01:42:11;100030.41;;;17.09;100.00
35577;BME280;21680;52.400;16.920;2023-07-29T01:44:37;100029.12;;;17.08;100.00
35577;BME280;21680;52.400;16.920;2023-07-29T01:47:03;100033.27;;;17.05;100.00
35577;BME280;21680;52.400;16.920;2023-07-29T01:49:28;100033.17;;;17.04;100.00
35577;BME280;21680;52.400;16.920;2023-07-29T01:51:53;100031.47;;;17.03;100.00
35577;BME280;21680;52.400;16.920;2023-07-29T01:54:18;100028.84;;;17.02;100.00
35577;BME280;21680;52.400;16.920;2023-07-29T01:56:44;100032.95;;;17.00;100.00
35577;BME280;21680;52.400;16.920;2023-07-29T01:59:09;100032.18;;;16.99;100.00
35577;BME280;21680;52.400;16.920;2023-07-29T02:01:34;100030.85;;;16.97;100.00
35577;BME280;21680;52.400;16.920;2023-07-29T02:03:59;100027.08;;;16.95;100.00
35577;BME280;21680;52.400;16.920;2023-07-29T02:06:25;100027.36;;;16.94;100.00
35577;BME280;21680;52.400;16.920;2023-07-29T02:08:53;100029.34;;;16.94;100.00
35577;BME280;21680;52.400;16.920;2023-07-29T02:11:19;100029.71;;;16.91;100.00
35577;BME280;21680;52.400;16.920;2023-07-29T02:13:45;100029.96;;;16.90;100.00
35577;BME280;21680;52.400;16.920;2023-07-29T02:16:11;100029.71;;;16.89;100.00
35577;BME280;21680;52.400;16.920;2023-07-29T02:18:36;100031.14;;;16.87;100.00
35577;BME280;21680;52.400;16.920;2023-07-29T02:21:01;100027.20;;;16.86;100.00
35577;BME280;21680;52.400;16.920;2023-07-29T02:23:26;100028.02;;;16.85;100.00
35577;BME280;21680;52.400;16.920;2023-07-29T02:25:52;100032.81;;;16.84;100.00
35577;BME280;21680;52.400;16.920;2023-07-29T02:28:17;100034.87;;;16.83;100.00
35577;BME280;21680;52.400;16.920;2023-07-29T02:30:42;100029.52;;;16.82;100.00
35577;BME280;21680;52.400;16.920;2023-07-29T02:33:10;100030.17;;;16.81;100.00
35577;BME280;21680;52.400;16.920;2023-07-29T02:35:35;100033.31;;;16.80;100.00
35577;BME280;21680;52.400;16.920;2023-07-29T02:38:01;100035.27;;;16.78;100.00
35577;BME280;21680;52.400;16.920;2023-07-29T02:40:26;100034.42;;;16.75;100.00
35577;BME280;21680;52.400;16.920;2023-07-29T02:42:52;100033.11;;;16.73;100.00
35577;BME280;21680;52.400;16.920;2023-07-29T02:45:17;100039.38;;;16.71;100.00
35577;BME280;21680;52.400;16.920;2023-07-29T02:47:42;100040.65;;;16.67;100.00
35577;BME280;21680;52.400;16.920;2023-07-29T02:50:08;100041.23;;;16.59;100.00
35577;BME280;21680;52.400;16.920;2023-07-29T02:52:34;100044.33;;;16.56;100.00
35577;BME280;21680;52.400;16.920;2023-07-29T02:54:59;100048.38;;;16.53;100.00
35577;BME280;21680;52.400;16.920;2023-07-29T02:57:24;100049.04;;;16.51;100.00
35577;BME280;21680;52.400;16.920;2023-07-29T02:59:50;100049.31;;;16.50;100.00
35577;BME280;21680;52.400;16.920;2023-07-29T03:02:15;100053.11;;;16.48;100.00
35577;BME280;21680;52.400;16.920;2023-07-29T03:04:41;100055.20;;;16.40;100.00
35577;BME280;21680;52.400;16.920;2023-07-29T03:07:06;100057.12;;;16.33;100.00
35577;BME280;21680;52.400;16.920;2023-07-29T03:09:31;100058.23;;;16.33;100.00
35577;BME280;21680;52.400;16.920;2023-07-29T03:11:58;100060.88;;;16.26;100.00
35577;BME280;21680;52.400;16.920;2023-07-29T03:14:24;100061.42;;;16.24;100.00
35577;BME280;21680;52.400;16.920;2023-07-29T03:16:49;100061.20;;;16.22;100.00
35577;BME280;21680;52.400;16.920;2023-07-29T03:19:15;100061.75;;;16.17;100.00
35577;BME280;21680;52.400;16.920;2023-07-29T03:21:40;100058.55;;;16.17;100.00
35577;BME280;21680;52.400;16.920;2023-07-29T03:24:05;100055.63;;;16.17;100.00
35577;BME280;21680;52.400;16.920;2023-07-29T03:26:32;100059.39;;;16.18;100.00
35577;BME280;21680;52.400;16.920;2023-07-29T03:28:57;100060.89;;;16.17;100.00
35577;BME280;21680;52.400;16.920;2023-07-29T03:31:22;100057.86;;;16.16;100.00
35577;BME280;21680;52.400;16.920;2023-07-29T03:33:47;100062.46;;;16.18;100.00
35577;BME280;21680;52.400;16.920;2023-07-29T03:36:12;100060.21;;;16.21;100.00
35577;BME280;21680;52.400;16.920;2023-07-29T03:38:39;100066.20;;;16.25;100.00
35577;BME280;21680;52.400;16.920;2023-07-29T03:41:07;100068.02;;;16.30;100.00
35577;BME280;21680;52.400;16.920;2023-07-29T03:43:33;100067.05;;;16.33;100.00
35577;BME280;21680;52.400;16.920;2023-07-29T03:45:59;100073.63;;;16.37;100.00
35577;BME280;21680;52.400;16.920;2023-07-29T03:48:24;100077.30;;;16.40;100.00
35577;BME280;21680;52.400;16.920;2023-07-29T03:50:50;100077.33;;;16.45;100.00
35577;BME280;21680;52.400;16.920;2023-07-29T03:53:15;100072.73;;;16.48;100.00
35577;BME280;21680;52.400;16.920;2023-07-29T03:55:40;100071.33;;;16.52;100.00
35577;BME280;21680;52.400;16.920;2023-07-29T03:58:06;100074.05;;;16.57;100.00
35577;BME280;21680;52.400;16.920;2023-07-29T04:00:31;100073.23;;;16.63;100.00
35577;BME280;21680;52.400;16.920;2023-07-29T04:02:56;100072.52;;;16.65;100.00
35577;BME280;21680;52.400;16.920;2023-07-29T04:05:21;100071.11;;;16.69;100.00
35577;BME280;21680;52.400;16.920;2023-07-29T04:07:47;100072.94;;;16.74;100.00
35577;BME280;21680;52.400;16.920;2023-07-29T04:10:12;100068.78;;;16.74;100.00
35577;BME280;21680;52.400;16.920;2023-07-29T04:12:38;100067.17;;;16.76;100.00
35577;BME280;21680;52.400;16.920;2023-07-29T04:15:04;100072.91;;;16.79;100.00
35577;BME280;21680;52.400;16.920;2023-07-29T04:17:29;100079.52;;;16.82;100.00
35577;BME280;21680;52.400;16.920;2023-07-29T04:19:54;100080.50;;;16.88;100.00
35577;BME280;21680;52.400;16.920;2023-07-29T04:22:20;100076.44;;;16.94;100.00
35577;BME280;21680;52.400;16.920;2023-07-29T04:24:45;100076.68;;;16.98;100.00
35577;BME280;21680;52.400;16.920;2023-07-29T04:27:10;100076.92;;;17.01;100.00
35577;BME280;21680;52.400;16.920;2023-07-29T04:29:36;100083.51;;;17.04;100.00
35577;BME280;21680;52.400;16.920;2023-07-29T04:32:02;100083.59;;;17.08;100.00
35577;BME280;21680;52.400;16.920;2023-07-29T04:34:27;100084.13;;;17.10;100.00
35577;BME280;21680;52.400;16.920;2023-07-29T04:36:53;100083.52;;;17.11;100.00
35577;BME280;21680;52.400;16.920;2023-07-29T04:39:18;100083.10;;;17.14;100.00
35577;BME280;21680;52.400;16.920;2023-07-29T04:41:43;100085.63;;;17.16;100.00
35577;BME280;21680;52.400;16.920;2023-07-29T04:44:08;100081.40;;;17.15;100.00
35577;BME280;21680;52.400;16.920;2023-07-29T04:46:36;100081.92;;;17.13;100.00
35577;BME280;21680;52.400;16.920;2023-07-29T04:49:02;100080.61;;;17.11;100.00
35577;BME280;21680;52.400;16.920;2023-07-29T04:51:27;100083.61;;;17.10;100.00
35577;BME280;21680;52.400;16.920;2023-07-29T04:53:53;100080.80;;;17.09;100.00
35577;BME280;21680;52.400;16.920;2023-07-29T04:56:18;100079.28;;;17.08;100.00
35577;BME280;21680;52.400;16.920;2023-07-29T04:58:43;100080.02;;;17.10;100.00
35577;BME280;21680;52.400;16.920;2023-07-29T05:01:08;100081.00;;;17.11;100.00
35577;BME280;21680;52.400;16.920;2023-07-29T05:03:34;100080.91;;;17.12;100.00
35577;BME280;21680;52.400;16.920;2023-07-29T05:05:59;100081.27;;;17.12;100.00
35577;BME280;21680;52.400;16.920;2023-07-29T05:08:26;100087.65;;;17.16;100.00
35577;BME280;21680;52.400;16.920;2023-07-29T05:10:52;100087.63;;;17.18;100.00
35577;BME280;21680;52.400;16.920;2023-07-29T05:13:18;100085.91;;;17.19;100.00
35577;BME280;21680;52.400;16.920;2023-07-29T05:15:43;100085.49;;;17.20;100.00
35577;BME280;21680;52.400;16.920;2023-07-29T05:18:09;100081.23;;;17.24;100.00
35577;BME280;21680;52.400;16.920;2023-07-29T05:20:34;100082.10;;;17.29;100.00
35577;BME280;21680;52.400;16.920;2023-07-29T05:22:59;100078.63;;;17.34;100.00
35577;BME280;21680;52.400;16.920;2023-07-29T05:25:26;100078.98;;;17.39;100.00
35577;BME280;21680;52.400;16.920;2023-07-29T05:27:51;100081.92;;;17.38;100.00
35577;BME280;21680;52.400;16.920;2023-07-29T05:30:16;100079.17;;;17.36;100.00
35577;BME280;21680;52.400;16.920;2023-07-29T05:32:42;100082.39;;;17.36;100.00
35577;BME280;21680;52.400;16.920;2023-07-29T05:35:07;100082.03;;;17.39;100.00
35577;BME280;21680;52.400;16.920;2023-07-29T05:37:32;100087.96;;;17.43;100.00
35577;BME280;21680;52.400;16.920;2023-07-29T05:39:58;100089.79;;;17.46;100.00
35577;BME280;21680;52.400;16.920;2023-07-29T05:42:23;100093.96;;;17.50;100.00
35577;BME280;21680;52.400;16.920;2023-07-29T05:44:49;100095.86;;;17.55;100.00
35577;BME280;21680;52.400;16.920;2023-07-29T05:47:14;100093.35;;;17.62;100.00
35577;BME280;21680;52.400;16.920;2023-07-29T05:49:39;100092.23;;;17.67;100.00
35577;BME280;21680;52.400;16.920;2023-07-29T05:52:05;100094.02;;;17.71;100.00
35577;BME280;21680;52.400;16.920;2023-07-29T05:54:30;100090.82;;;17.77;100.00
35577;BME280;21680;52.400;16.920;2023-07-29T05:56:56;100094.11;;;17.86;100.00
35577;BME280;21680;52.400;16.920;2023-07-29T05:59:21;100094.00;;;17.90;100.00
35577;BME280;21680;52.400;16.920;2023-07-29T06:01:46;100094.34;;;17.90;100.00
35577;BME280;21680;52.400;16.920;2023-07-29T06:04:11;100095.05;;;17.94;100.00
35577;BME280;21680;52.400;16.920;2023-07-29T06:06:37;100098.46;;;18.01;100.00
35577;BME280;21680;52.400;16.920;2023-07-29T06:09:02;100095.56;;;18.07;100.00
35577;BME280;21680;52.400;16.920;2023-07-29T06:11:27;100100.16;;;18.17;100.00
35577;BME280;21680;52.400;16.920;2023-07-29T06:13:53;100093.98;;;18.26;100.00
35577;BME280;21680;52.400;16.920;2023-07-29T06:16:18;100096.17;;;18.36;100.00
35577;BME280;21680;52.400;16.920;2023-07-29T06:18:43;100096.09;;;18.43;100.00
35577;BME280;21680;52.400;16.920;2023-07-29T06:21:09;100099.67;;;18.48;100.00
35577;BME280;21680;52.400;16.920;2023-07-29T06:23:37;100098.42;;;18.50;100.00
35577;BME280;21680;52.400;16.920;2023-07-29T06:26:02;100101.50;;;18.52;100.00
35577;BME280;21680;52.400;16.920;2023-07-29T06:28:28;100102.80;;;18.56;100.00
35577;BME280;21680;52.400;16.920;2023-07-29T06:30:53;100102.91;;;18.64;100.00
35577;BME280;21680;52.400;16.920;2023-07-29T06:33:19;100101.69;;;18.74;100.00
35577;BME280;21680;52.400;16.920;2023-07-29T06:35:44;100101.11;;;18.80;100.00
35577;BME280;21680;52.400;16.920;2023-07-29T06:38:09;100102.52;;;18.87;100.00
35577;BME280;21680;52.400;16.920;2023-07-29T06:40:35;100101.55;;;18.96;100.00
35577;BME280;21680;52.400;16.920;2023-07-29T06:43:00;100100.66;;;19.00;100.00
35577;BME280;21680;52.400;16.920;2023-07-29T06:45:26;100099.02;;;19.00;100.00
35577;BME280;21680;52.400;16.920;2023-07-29T06:47:51;100095.05;;;19.06;100.00
35577;BME280;21680;52.400;16.920;2023-07-29T06:50:16;100092.53;;;19.17;100.00
35577;BME280;21680;52.400;16.920;2023-07-29T06:52:42;100092.35;;;19.27;100.00
35577;BME280;21680;52.400;16.920;2023-07-29T06:55:07;100089.23;;;19.31;100.00
35577;BME280;21680;52.400;16.920;2023-07-29T06:57:33;100086.54;;;19.27;100.00
35577;BME280;21680;52.400;16.920;2023-07-29T06:59:58;100089.83;;;19.25;100.00
35577;BME280;21680;52.400;16.920;2023-07-29T07:02:23;100091.63;;;19.27;100.00
35577;BME280;21680;52.400;16.920;2023-07-29T07:04:49;100088.77;;;19.32;100.00
35577;BME280;21680;52.400;16.920;2023-07-29T07:07:15;100086.30;;;19.36;100.00
35577;BME280;21680;52.400;16.920;2023-07-29T07:09:40;100078.37;;;19.35;100.00
35577;BME280;21680;52.400;16.920;2023-07-29T07:12:06;100070.13;;;19.34;100.00
35577;BME280;21680;52.400;16.920;2023-07-29T07:14:31;100068.89;;;19.38;100.00
35577;BME280;21680;52.400;16.920;2023-07-29T07:16:56;100068.09;;;19.43;100.00
35577;BME280;21680;52.400;16.920;2023-07-29T07:19:22;100065.86;;;19.48;100.00
35577;BME280;21680;52.400;16.920;2023-07-29T07:21:47;100064.51;;;19.51;100.00
35577;BME280;21680;52.400;16.920;2023-07-29T07:24:12;100072.80;;;19.55;100.00
35577;BME280;21680;52.400;16.920;2023-07-29T07:26:37;100069.85;;;19.64;100.00
35577;BME280;21680;52.400;16.920;2023-07-29T07:29:02;100069.07;;;19.70;100.00
35577;BME280;21680;52.400;16.920;2023-07-29T07:31:28;100070.20;;;19.73;100.00
35577;BME280;21680;52.400;16.920;2023-07-29T07:33:53;100068.98;;;19.77;100.00
35577;BME280;21680;52.400;16.920;2023-07-29T07:36:18;100067.95;;;19.85;100.00
35577;BME280;21680;52.400;16.920;2023-07-29T07:38:43;100070.59;;;19.94;100.00
35577;BME280;21680;52.400;16.920;2023-07-29T07:41:09;100064.88;;;20.00;100.00
35577;BME280;21680;52.400;16.920;2023-07-29T07:43:34;100066.31;;;20.06;100.00
35577;BME280;21680;52.400;16.920;2023-07-29T07:46:00;100061.56;;;20.12;100.00
35577;BME280;21680;52.400;16.920;2023-07-29T07:48:29;100066.81;;;20.20;100.00
35577;BME280;21680;52.400;16.920;2023-07-29T07:50:55;100067.48;;;20.29;100.00
35577;BME280;21680;52.400;16.920;2023-07-29T07:53:20;100063.36;;;20.36;100.00
35577;BME280;21680;52.400;16.920;2023-07-29T07:55:46;100064.99;;;20.42;100.00
35577;BME280;21680;52.400;16.920;2023-07-29T07:58:12;100061.98;;;20.49;100.00
35577;BME280;21680;52.400;16.920;2023-07-29T08:00:37;100063.27;;;20.59;100.00
35577;BME280;21680;52.400;16.920;2023-07-29T08:03:03;100056.17;;;20.66;100.00
35577;BME280;21680;52.400;16.920;2023-07-29T08:05:28;100057.48;;;20.73;100.00
35577;BME280;21680;52.400;16.920;2023-07-29T08:07:54;100052.75;;;20.81;100.00
35577;BME280;21680;52.400;16.920;2023-07-29T08:10:19;100050.01;;;20.85;100.00
35577;BME280;21680;52.400;16.920;2023-07-29T08:12:45;100048.08;;;20.92;100.00
35577;BME280;21680;52.400;16.920;2023-07-29T08:15:10;100044.91;;;20.94;100.00
35577;BME280;21680;52.400;16.920;2023-07-29T08:17:35;100042.95;;;21.01;100.00
35577;BME280;21680;52.400;16.920;2023-07-29T08:20:00;100039.61;;;21.11;100.00
35577;BME280;21680;52.400;16.920;2023-07-29T08:22:25;100039.71;;;21.20;100.00
35577;BME280;21680;52.400;16.920;2023-07-29T08:24:51;100040.13;;;21.29;100.00
35577;BME280;21680;52.400;16.920;2023-07-29T08:27:16;100041.30;;;21.37;100.00
35577;BME280;21680;52.400;16.920;2023-07-29T08:29:41;100040.59;;;21.46;100.00
35577;BME280;21680;52.400;16.920;2023-07-29T08:32:07;100035.38;;;21.62;100.00
35577;BME280;21680;52.400;16.920;2023-07-29T08:34:32;100038.73;;;21.81;99.97
35577;BME280;21680;52.400;16.920;2023-07-29T08:36:57;100035.15;;;21.93;99.78
35577;BME280;21680;52.400;16.920;2023-07-29T08:39:22;100034.70;;;21.98;98.88
35577;BME280;21680;52.400;16.920;2023-07-29T08:41:54;100035.83;;;21.99;97.98
35577;BME280;21680;52.400;16.920;2023-07-29T08:44:22;100029.72;;;22.02;97.69
35577;BME280;21680;52.400;16.920;2023-07-29T08:46:49;100024.77;;;22.05;97.22
35577;BME280;21680;52.400;16.920;2023-07-29T08:49:15;100020.62;;;22.06;96.80
35577;BME280;21680;52.400;16.920;2023-07-29T08:51:46;100018.86;;;22.11;96.67
35577;BME280;21680;52.400;16.920;2023-07-29T08:54:12;100020.77;;;22.21;96.34
35577;BME280;21680;52.400;16.920;2023-07-29T08:56:41;100021.87;;;22.33;96.22
35577;BME280;21680;52.400;16.920;2023-07-29T08:59:07;100019.42;;;22.46;95.72
35577;BME280;21680;52.400;16.920;2023-07-29T09:01:33;100015.13;;;22.59;95.49
35577;BME280;21680;52.400;16.920;2023-07-29T09:03:59;100015.02;;;22.71;95.21
35577;BME280;21680;52.400;16.920;2023-07-29T09:06:24;100009.96;;;22.83;94.94
35577;BME280;21680;52.400;16.920;2023-07-29T09:08:51;100008.47;;;22.97;94.88
35577;BME280;21680;52.400;16.920;2023-07-29T09:11:18;100007.37;;;23.09;94.46
35577;BME280;21680;52.400;16.920;2023-07-29T09:13:44;100011.73;;;23.25;94.00
35577;BME280;21680;52.400;16.920;2023-07-29T09:16:09;100012.48;;;23.36;93.31
35577;BME280;21680;52.400;16.920;2023-07-29T09:18:35;100003.09;;;23.49;93.06
35577;BME280;21680;52.400;16.920;2023-07-29T09:21:01;100002.52;;;23.59;92.62
35577;BME280;21680;52.400;16.920;2023-07-29T09:23:27;100001.20;;;23.68;92.48
35577;BME280;21680;52.400;16.920;2023-07-29T09:26:02;100002.23;;;23.79;92.05
35577;BME280;21680;52.400;16.920;2023-07-29T09:28:33;99998.54;;;23.93;91.59
35577;BME280;21680;52.400;16.920;2023-07-29T09:30:58;100003.08;;;24.08;91.25
35577;BME280;21680;52.400;16.920;2023-07-29T09:33:28;100005.08;;;24.14;89.07
35577;BME280;21680;52.400;16.920;2023-07-29T09:35:54;100003.21;;;24.06;88.36
35577;BME280;21680;52.400;16.920;2023-07-29T09:38:28;100001.74;;;24.06;88.32
35577;BME280;21680;52.400;16.920;2023-07-29T09:40:56;100001.61;;;24.09;87.25
35577;BME280;21680;52.400;16.920;2023-07-29T09:43:29;100002.69;;;24.18;86.78
35577;BME280;21680;52.400;16.920;2023-07-29T09:45:59;100006.14;;;24.28;86.51
35577;BME280;21680;52.400;16.920;2023-07-29T09:48:25;100007.35;;;24.30;85.48
35577;BME280;21680;52.400;16.920;2023-07-29T09:50:50;100007.42;;;24.33;85.27
35577;BME280;21680;52.400;16.920;2023-07-29T09:53:16;100007.77;;;24.41;84.89
35577;BME280;21680;52.400;16.920;2023-07-29T09:55:46;100007.70;;;24.55;84.39
35577;BME280;21680;52.400;16.920;2023-07-29T09:58:13;100003.30;;;24.64;83.45
35577;BME280;21680;52.400;16.920;2023-07-29T10:00:39;99999.95;;;24.73;82.53
35577;BME280;21680;52.400;16.920;2023-07-29T10:03:05;99992.52;;;24.82;82.06
35577;BME280;21680;52.400;16.920;2023-07-29T10:05:32;99989.95;;;24.85;81.61
35577;BME280;21680;52.400;16.920;2023-07-29T10:08:00;99985.90;;;24.89;81.57
35577;BME280;21680;52.400;16.920;2023-07-29T10:10:27;99979.63;;;25.01;81.21
35577;BME280;21680;52.400;16.920;2023-07-29T10:12:53;99980.54;;;25.20;80.20
35577;BME280;21680;52.400;16.920;2023-07-29T10:15:20;99972.27;;;25.25;78.56
35577;BME280;21680;52.400;16.920;2023-07-29T10:17:46;99973.73;;;25.34;78.56
35577;BME280;21680;52.400;16.920;2023-07-29T10:20:12;99973.11;;;25.41;77.80
35577;BME280;21680;52.400;16.920;2023-07-29T10:22:41;99966.35;;;25.43;77.15
35577;BME280;21680;52.400;16.920;2023-07-29T10:25:19;99963.71;;;25.43;76.69
35577;BME280;21680;52.400;16.920;2023-07-29T10:27:54;99962.98;;;25.53;76.55
35577;BME280;21680;52.400;16.920;2023-07-29T10:30:21;99955.25;;;25.72;76.51
35577;BME280;21680;52.400;16.920;2023-07-29T10:32:48;99949.83;;;25.96;76.60
35577;BME280;21680;52.400;16.920;2023-07-29T10:35:15;99944.50;;;26.14;76.28
35577;BME280;21680;52.400;16.920;2023-07-29T10:37:41;99938.73;;;26.18;75.65
35577;BME280;21680;52.400;16.920;2023-07-29T10:40:08;99936.09;;;26.02;74.36
35577;BME280;21680;52.400;16.920;2023-07-29T10:42:35;99930.95;;;25.86;73.78
35577;BME280;21680;52.400;16.920;2023-07-29T10:45:17;99929.17;;;25.84;73.84
35577;BME280;21680;52.400;16.920;2023-07-29T10:47:45;99923.51;;;25.88;73.80
35577;BME280;21680;52.400;16.920;2023-07-29T10:50:21;99929.33;;;26.02;73.40
35577;BME280;21680;52.400;16.920;2023-07-29T10:52:51;99931.11;;;26.14;72.72
35577;BME280;21680;52.400;16.920;2023-07-29T10:57:50;99924.11;;;26.32;72.39
35577;BME280;21680;52.400;16.920;2023-07-29T11:00:16;99920.82;;;26.44;72.10
35577;BME280;21680;52.400;16.920;2023-07-29T11:02:56;99916.23;;;26.51;71.61
35577;BME280;21680;52.400;16.920;2023-07-29T11:05:29;99910.77;;;26.56;71.52
35577;BME280;21680;52.400;16.920;2023-07-29T11:08:28;99909.77;;;26.68;70.84
35577;BME280;21680;52.400;16.920;2023-07-29T11:13:32;99901.84;;;27.10;69.88
35577;BME280;21680;52.400;16.920;2023-07-29T11:15:58;99898.56;;;27.19;68.76
35577;BME280;21680;52.400;16.920;2023-07-29T11:18:27;99892.18;;;27.14;68.36
35577;BME280;21680;52.400;16.920;2023-07-29T11:20:54;99886.57;;;27.10;68.30
35577;BME280;21680;52.400;16.920;2023-07-29T11:23:27;99884.54;;;27.07;68.03
35577;BME280;21680;52.400;16.920;2023-07-29T11:25:53;99878.94;;;27.10;67.83
35577;BME280;21680;52.400;16.920;2023-07-29T11:28:18;99874.49;;;27.23;67.98
35577;BME280;21680;52.400;16.920;2023-07-29T11:30:43;99873.52;;;27.47;67.61
35577;BME280;21680;52.400;16.920;2023-07-29T11:33:09;99876.20;;;27.62;67.30
35577;BME280;21680;52.400;16.920;2023-07-29T11:35:35;99871.23;;;27.75;66.46
35577;BME280;21680;52.400;16.920;2023-07-29T11:38:00;99865.41;;;27.74;66.12
35577;BME280;21680;52.400;16.920;2023-07-29T11:40:25;99864.12;;;27.67;65.04
35577;BME280;21680;52.400;16.920;2023-07-29T11:42:52;99860.41;;;27.58;63.82
35577;BME280;21680;52.400;16.920;2023-07-29T11:45:18;99860.05;;;27.55;63.58
35577;BME280;21680;52.400;16.920;2023-07-29T11:47:45;99856.29;;;27.70;63.68
35577;BME280;21680;52.400;16.920;2023-07-29T11:50:11;99850.35;;;27.94;63.34
35577;BME280;21680;52.400;16.920;2023-07-29T11:52:42;99841.31;;;28.21;63.16
35577;BME280;21680;52.400;16.920;2023-07-29T11:55:08;99831.06;;;28.43;61.52
35577;BME280;21680;52.400;16.920;2023-07-29T11:57:36;99832.22;;;28.32;60.49
35577;BME280;21680;52.400;16.920;2023-07-29T12:00:03;99839.52;;;28.14;60.67
35577;BME280;21680;52.400;16.920;2023-07-29T12:02:30;99832.00;;;28.04;60.60
35577;BME280;21680;52.400;16.920;2023-07-29T12:04:56;99826.13;;;28.05;60.84
35577;BME280;21680;52.400;16.920;2023-07-29T12:07:22;99826.23;;;28.10;60.27
35577;BME280;21680;52.400;16.920;2023-07-29T12:09:49;99828.70;;;28.09;59.94
35577;BME280;21680;52.400;16.920;2023-07-29T12:12:15;99825.37;;;28.11;60.08
35577;BME280;21680;52.400;16.920;2023-07-29T12:14:44;99827.07;;;28.18;60.04
35577;BME280;21680;52.400;16.920;2023-07-29T12:17:10;99824.30;;;28.15;60.10
35577;BME280;21680;52.400;16.920;2023-07-29T12:19:37;99823.04;;;28.11;60.30
35577;BME280;21680;52.400;16.920;2023-07-29T12:22:07;99819.15;;;28.12;60.25
35577;BME280;21680;52.400;16.920;2023-07-29T12:24:35;99808.10;;;28.16;59.98
35577;BME280;21680;52.400;16.920;2023-07-29T12:27:01;99800.44;;;28.25;59.85
35577;BME280;21680;52.400;16.920;2023-07-29T12:29:27;99794.14;;;28.31;60.10
35577;BME280;21680;52.400;16.920;2023-07-29T12:32:03;99783.90;;;28.36;60.04
35577;BME280;21680;52.400;16.920;2023-07-29T12:34:30;99780.89;;;28.49;60.03
35577;BME280;21680;52.400;16.920;2023-07-29T12:36:57;99774.33;;;28.79;59.99
35577;BME280;21680;52.400;16.920;2023-07-29T12:39:23;99769.77;;;29.06;59.69
35577;BME280;21680;52.400;16.920;2023-07-29T12:41:51;99765.02;;;29.18;59.26